sensor_id;sensor_type;location;lat;lon;timestamp;P1;durP1;ratioP1;P2;durP2;ratioP2
3253;SDS011;1639;42.804;23.342;2023-07-29T00:00:43;6.20;;;2.80;;
3253;SDS011;1639;42.804;23.342;2023-07-29T00:03:09;5.03;;;1.47;;
3253;SDS011;1639;42.804;23.342;2023-07-29T00:05:36;6.17;;;2.30;;
3253;SDS011;1639;42.804;23.342;2023-07-29T00:08:02;5.03;;;1.73;;
3253;SDS011;1639;42.804;23.342;2023-07-29T00:10:28;7.47;;;3.00;;
3253;SDS011;1639;42.804;23.342;2023-07-29T00:12:54;5.20;;;2.37;;
3253;SDS011;1639;42.804;23.342;2023-07-29T00:15:19;4.80;;;2.00;;
3253;SDS011;1639;42.804;23.342;2023-07-29T00:17:45;5.43;;;2.57;;
3253;SDS011;1639;42.804;23.342;2023-07-29T00:20:10;5.67;;;2.00;;
3253;SDS011;1639;42.804;23.342;2023-07-29T00:22:36;5.23;;;2.33;;
3253;SDS011;1639;42.804;23.342;2023-07-29T00:25:01;6.30;;;2.60;;
3253;SDS011;1639;42.804;23.342;2023-07-29T00:27:27;6.03;;;2.50;;
3253;SDS011;1639;42.804;23.342;2023-07-29T00:29:52;5.20;;;1.80;;
3253;SDS011;1639;42.804;23.342;2023-07-29T00:32:17;6.07;;;2.87;;
3253;SDS011;1639;42.804;23.342;2023-07-29T00:34:43;5.00;;;2.23;;
3253;SDS011;1639;42.804;23.342;2023-07-29T00:37:08;5.10;;;1.97;;
3253;SDS011;1639;42.804;23.342;2023-07-29T00:39:36;5.20;;;2.37;;
3253;SDS011;1639;42.804;23.342;2023-07-29T00:42:02;5.40;;;2.07;;
3253;SDS011;1639;42.804;23.342;2023-07-29T00:44:28;5.70;;;2.30;;
3253;SDS011;1639;42.804;23.342;2023-07-29T00:46:53;5.37;;;2.53;;
3253;SDS011;1639;42.804;23.342;2023-07-29T00:49:20;5.00;;;1.93;;
3253;SDS011;1639;42.804;23.342;2023-07-29T00:51:46;5.60;;;2.83;;
3253;SDS011;1639;42.804;23.342;2023-07-29T00:54:12;5.60;;;2.40;;
3253;SDS011;1639;42.804;23.342;2023-07-29T00:56:38;5.80;;;2.03;;
3253;SDS011;1639;42.804;23.342;2023-07-29T00:59:04;6.50;;;3.27;;
3253;SDS011;1639;42.804;23.342;2023-07-29T01:01:30;4.90;;;1.83;;
3253;SDS011;1639;42.804;23.342;2023-07-29T01:03:56;5.10;;;2.23;;
3253;SDS011;1639;42.804;23.342;2023-07-29T01:09:14;5.57;;;2.33;;
3253;SDS011;1639;42.804;23.342;2023-07-29T01:11:51;5.00;;;2.07;;
3253;SDS011;1639;42.804;23.342;2023-07-29T01:14:21;5.27;;;2.10;;
3253;SDS011;1639;42.804;23.342;2023-07-29T01:16:58;6.80;;;2.60;;
3253;SDS011;1639;42.804;23.342;2023-07-29T01:22:10;4.90;;;2.13;;
3253;SDS011;1639;42.804;23.342;2023-07-29T01:24:37;5.30;;;2.20;;
3253;SDS011;1639;42.804;23.342;2023-07-29T01:27:04;5.13;;;2.13;;
3253;SDS011;1639;42.804;23.342;2023-07-29T01:29:30;4.80;;;1.67;;
3253;SDS011;1639;42.804;23.342;2023-07-29T01:31:56;5.10;;;2.10;;
3253;SDS011;1639;42.804;23.342;2023-07-29T01:34:37;5.13;;;2.00;;
3253;SDS011;1639;42.804;23.342;2023-07-29T01:37:09;5.63;;;1.97;;
3253;SDS011;1639;42.804;23.342;2023-07-29T01:39:39;5.33;;;2.33;;
3253;SDS011;1639;42.804;23.342;2023-07-29T01:42:07;5.10;;;1.90;;
3253;SDS011;1639;42.804;23.342;2023-07-29T01:44:32;5.07;;;1.77;;
3253;SDS011;1639;42.804;23.342;2023-07-29T01:46:59;11.83;;;2.90;;
3253;SDS011;1639;42.804;23.342;2023-07-29T01:49:24;4.80;;;2.10;;
3253;SDS011;1639;42.804;23.342;2023-07-29T01:51:50;4.70;;;1.73;;
3253;SDS011;1639;42.804;23.342;2023-07-29T01:54:15;5.47;;;2.27;;
3253;SDS011;1639;42.804;23.342;2023-07-29T01:56:40;6.23;;;2.37;;
3253;SDS011;1639;42.804;23.342;2023-07-29T01:59:06;5.97;;;2.03;;
3253;SDS011;1639;42.804;23.342;2023-07-29T02:01:31;6.30;;;1.93;;
3253;SDS011;1639;42.804;23.342;2023-07-29T02:03:57;6.70;;;1.97;;
3253;SDS011;1639;42.804;23.342;2023-07-29T02:06:22;23.67;;;3.60;;
3253;SDS011;1639;42.804;23.342;2023-07-29T02:08:47;6.23;;;2.47;;
3253;SDS011;1639;42.804;23.342;2023-07-29T02:11:13;7.03;;;2.57;;
3253;SDS011;1639;42.804;23.342;2023-07-29T02:13:38;5.10;;;2.13;;
3253;SDS011;1639;42.804;23.342;2023-07-29T02:16:04;5.10;;;2.07;;
3253;SDS011;1639;42.804;23.342;2023-07-29T02:18:29;6.03;;;2.53;;
3253;SDS011;1639;42.804;23.342;2023-07-29T02:20:54;5.13;;;2.03;;
3253;SDS011;1639;42.804;23.342;2023-07-29T02:23:20;6.10;;;2.50;;
3253;SDS011;1639;42.804;23.342;2023-07-29T02:25:45;5.00;;;2.03;;
3253;SDS011;1639;42.804;23.342;2023-07-29T02:28:10;4.80;;;1.93;;
3253;SDS011;1639;42.804;23.342;2023-07-29T02:30:36;7.67;;;2.47;;
3253;SDS011;1639;42.804;23.342;2023-07-29T02:33:02;9.13;;;2.60;;
3253;SDS011;1639;42.804;23.342;2023-07-29T02:35:27;5.70;;;2.60;;
3253;SDS011;1639;42.804;23.342;2023-07-29T02:37:53;7.00;;;2.70;;
3253;SDS011;1639;42.804;23.342;2023-07-29T02:40:18;5.37;;;2.67;;
3253;SDS011;1639;42.804;23.342;2023-07-29T02:42:45;5.47;;;2.60;;
3253;SDS011;1639;42.804;23.342;2023-07-29T02:45:11;5.97;;;2.57;;
3253;SDS011;1639;42.804;23.342;2023-07-29T02:47:37;6.70;;;1.97;;
3253;SDS011;1639;42.804;23.342;2023-07-29T02:50:02;5.97;;;2.40;;
3253;SDS011;1639;42.804;23.342;2023-07-29T02:52:28;4.90;;;2.27;;
3253;SDS011;1639;42.804;23.342;2023-07-29T02:54:53;5.40;;;2.50;;
3253;SDS011;1639;42.804;23.342;2023-07-29T02:57:19;5.97;;;2.37;;
3253;SDS011;1639;42.804;23.342;2023-07-29T02:59:45;5.40;;;2.63;;
3253;SDS011;1639;42.804;23.342;2023-07-29T03:02:10;5.30;;;2.50;;
3253;SDS011;1639;42.804;23.342;2023-07-29T03:04:36;7.43;;;3.00;;
3253;SDS011;1639;42.804;23.342;2023-07-29T03:07:01;5.60;;;2.73;;
3253;SDS011;1639;42.804;23.342;2023-07-29T03:09:27;4.80;;;1.70;;
3253;SDS011;1639;42.804;23.342;2023-07-29T03:11:53;5.23;;;2.03;;
3253;SDS011;1639;42.804;23.342;2023-07-29T03:14:19;5.07;;;2.13;;
3253;SDS011;1639;42.804;23.342;2023-07-29T03:16:45;5.10;;;1.83;;
3253;SDS011;1639;42.804;23.342;2023-07-29T03:19:11;5.37;;;2.27;;
3253;SDS011;1639;42.804;23.342;2023-07-29T03:21:37;5.10;;;1.90;;
3253;SDS011;1639;42.804;23.342;2023-07-29T03:24:03;6.17;;;2.77;;
3253;SDS011;1639;42.804;23.342;2023-07-29T03:26:28;5.20;;;2.00;;
3253;SDS011;1639;42.804;23.342;2023-07-29T03:28:53;4.87;;;1.90;;
3253;SDS011;1639;42.804;23.342;2023-07-29T03:31:19;6.80;;;2.57;;
3253;SDS011;1639;42.804;23.342;2023-07-29T03:33:44;7.43;;;3.13;;
3253;SDS011;1639;42.804;23.342;2023-07-29T03:36:10;7.07;;;2.17;;
3253;SDS011;1639;42.804;23.342;2023-07-29T03:38:35;5.43;;;2.33;;
3253;SDS011;1639;42.804;23.342;2023-07-29T03:41:04;4.90;;;1.60;;
3253;SDS011;1639;42.804;23.342;2023-07-29T03:43:31;5.10;;;1.93;;
3253;SDS011;1639;42.804;23.342;2023-07-29T03:45:56;6.37;;;1.93;;
3253;SDS011;1639;42.804;23.342;2023-07-29T03:48:21;5.53;;;2.13;;
3253;SDS011;1639;42.804;23.342;2023-07-29T03:50:47;12.30;;;5.70;;
3253;SDS011;1639;42.804;23.342;2023-07-29T03:53:12;9.33;;;4.77;;
3253;SDS011;1639;42.804;23.342;2023-07-29T03:55:37;15.97;;;7.23;;
3253;SDS011;1639;42.804;23.342;2023-07-29T03:58:03;7.80;;;5.43;;
3253;SDS011;1639;42.804;23.342;2023-07-29T04:00:28;6.93;;;2.90;;
3253;SDS011;1639;42.804;23.342;2023-07-29T04:02:54;9.60;;;3.97;;
3253;SDS011;1639;42.804;23.342;2023-07-29T04:05:19;5.90;;;2.80;;
3253;SDS011;1639;42.804;23.342;2023-07-29T04:07:44;6.27;;;1.97;;
3253;SDS011;1639;42.804;23.342;2023-07-29T04:10:10;4.90;;;1.97;;
3253;SDS011;1639;42.804;23.342;2023-07-29T04:12:36;5.80;;;2.30;;
3253;SDS011;1639;42.804;23.342;2023-07-29T04:15:01;5.50;;;2.33;;
3253;SDS011;1639;42.804;23.342;2023-07-29T04:17:27;4.87;;;1.80;;
3253;SDS011;1639;42.804;23.342;2023-07-29T04:19:52;6.40;;;2.47;;
3253;SDS011;1639;42.804;23.342;2023-07-29T04:22:18;4.90;;;1.97;;
3253;SDS011;1639;42.804;23.342;2023-07-29T04:24:43;5.37;;;2.30;;
3253;SDS011;1639;42.804;23.342;2023-07-29T04:27:09;5.90;;;2.53;;
3253;SDS011;1639;42.804;23.342;2023-07-29T04:29:34;5.30;;;2.17;;
3253;SDS011;1639;42.804;23.342;2023-07-29T04:32:01;5.57;;;2.30;;
3253;SDS011;1639;42.804;23.342;2023-07-29T04:34:27;5.57;;;2.20;;
3253;SDS011;1639;42.804;23.342;2023-07-29T04:36:52;6.50;;;2.23;;
3253;SDS011;1639;42.804;23.342;2023-07-29T04:39:17;5.13;;;1.80;;
3253;SDS011;1639;42.804;23.342;2023-07-29T04:41:43;5.10;;;1.90;;
3253;SDS011;1639;42.804;23.342;2023-07-29T04:44:08;5.27;;;2.20;;
3253;SDS011;1639;42.804;23.342;2023-07-29T04:46:35;5.60;;;1.90;;
3253;SDS011;1639;42.804;23.342;2023-07-29T04:49:01;6.60;;;2.30;;
3253;SDS011;1639;42.804;23.342;2023-07-29T04:51:27;6.33;;;2.70;;
3253;SDS011;1639;42.804;23.342;2023-07-29T04:53:53;6.80;;;2.43;;
3253;SDS011;1639;42.804;23.342;2023-07-29T04:56:19;6.60;;;2.43;;
3253;SDS011;1639;42.804;23.342;2023-07-29T04:58:44;5.13;;;2.00;;
3253;SDS011;1639;42.804;23.342;2023-07-29T05:01:09;6.20;;;2.50;;
3253;SDS011;1639;42.804;23.342;2023-07-29T05:03:35;5.73;;;2.20;;
3253;SDS011;1639;42.804;23.342;2023-07-29T05:06:02;6.00;;;3.07;;
3253;SDS011;1639;42.804;23.342;2023-07-29T05:08:27;5.73;;;2.50;;
3253;SDS011;1639;42.804;23.342;2023-07-29T05:10:52;5.30;;;2.37;;
3253;SDS011;1639;42.804;23.342;2023-07-29T05:13:19;7.73;;;3.37;;
3253;SDS011;1639;42.804;23.342;2023-07-29T05:15:44;8.30;;;3.10;;
3253;SDS011;1639;42.804;23.342;2023-07-29T05:18:10;5.37;;;2.50;;
3253;SDS011;1639;42.804;23.342;2023-07-29T05:20:36;5.63;;;2.80;;
3253;SDS011;1639;42.804;23.342;2023-07-29T05:23:01;7.60;;;2.90;;
3253;SDS011;1639;42.804;23.342;2023-07-29T05:25:27;5.57;;;2.73;;
3253;SDS011;1639;42.804;23.342;2023-07-29T05:27:54;6.43;;;2.70;;
3253;SDS011;1639;42.804;23.342;2023-07-29T05:30:19;6.23;;;3.00;;
3253;SDS011;1639;42.804;23.342;2023-07-29T05:32:44;6.00;;;3.17;;
3253;SDS011;1639;42.804;23.342;2023-07-29T05:35:10;5.60;;;2.50;;
3253;SDS011;1639;42.804;23.342;2023-07-29T05:37:38;6.97;;;2.47;;
3253;SDS011;1639;42.804;23.342;2023-07-29T05:40:07;5.47;;;3.07;;
3253;SDS011;1639;42.804;23.342;2023-07-29T05:42:36;6.70;;;3.07;;
3253;SDS011;1639;42.804;23.342;2023-07-29T05:45:01;8.03;;;3.17;;
3253;SDS011;1639;42.804;23.342;2023-07-29T05:47:27;10.50;;;3.37;;
3253;SDS011;1639;42.804;23.342;2023-07-29T05:49:52;6.60;;;3.03;;
3253;SDS011;1639;42.804;23.342;2023-07-29T05:52:18;6.80;;;2.73;;
3253;SDS011;1639;42.804;23.342;2023-07-29T05:54:44;6.23;;;3.47;;
3253;SDS011;1639;42.804;23.342;2023-07-29T05:57:10;6.93;;;2.80;;
3253;SDS011;1639;42.804;23.342;2023-07-29T05:59:36;5.40;;;2.77;;
3253;SDS011;1639;42.804;23.342;2023-07-29T06:02:02;5.57;;;2.53;;
3253;SDS011;1639;42.804;23.342;2023-07-29T06:04:27;5.67;;;2.93;;
3253;SDS011;1639;42.804;23.342;2023-07-29T06:06:53;5.87;;;3.13;;
3253;SDS011;1639;42.804;23.342;2023-07-29T06:09:20;10.10;;;3.70;;
3253;SDS011;1639;42.804;23.342;2023-07-29T06:11:45;6.03;;;2.90;;
3253;SDS011;1639;42.804;23.342;2023-07-29T06:14:11;7.83;;;3.17;;
3253;SDS011;1639;42.804;23.342;2023-07-29T06:16:36;6.27;;;3.20;;
3253;SDS011;1639;42.804;23.342;2023-07-29T06:19:01;5.80;;;3.20;;
3253;SDS011;1639;42.804;23.342;2023-07-29T06:21:27;8.50;;;3.93;;
3253;SDS011;1639;42.804;23.342;2023-07-29T06:23:52;8.47;;;4.27;;
3253;SDS011;1639;42.804;23.342;2023-07-29T06:26:18;11.00;;;3.80;;
3253;SDS011;1639;42.804;23.342;2023-07-29T06:28:43;7.33;;;3.77;;
3253;SDS011;1639;42.804;23.342;2023-07-29T06:31:08;6.20;;;3.17;;
3253;SDS011;1639;42.804;23.342;2023-07-29T06:33:34;6.03;;;3.40;;
3253;SDS011;1639;42.804;23.342;2023-07-29T06:35:59;6.00;;;3.50;;
3253;SDS011;1639;42.804;23.342;2023-07-29T06:38:24;7.10;;;3.27;;
3253;SDS011;1639;42.804;23.342;2023-07-29T06:40:50;7.03;;;4.00;;
3253;SDS011;1639;42.804;23.342;2023-07-29T06:43:16;8.33;;;4.00;;
3253;SDS011;1639;42.804;23.342;2023-07-29T06:45:41;7.10;;;4.00;;
3253;SDS011;1639;42.804;23.342;2023-07-29T06:48:07;7.53;;;3.20;;
3253;SDS011;1639;42.804;23.342;2023-07-29T06:50:32;6.57;;;3.57;;
3253;SDS011;1639;42.804;23.342;2023-07-29T06:52:58;6.43;;;3.27;;
3253;SDS011;1639;42.804;23.342;2023-07-29T06:55:23;6.67;;;3.70;;
3253;SDS011;1639;42.804;23.342;2023-07-29T06:57:49;6.70;;;4.00;;
3253;SDS011;1639;42.804;23.342;2023-07-29T07:00:14;7.83;;;3.23;;
3253;SDS011;1639;42.804;23.342;2023-07-29T07:02:39;8.67;;;3.80;;
3253;SDS011;1639;42.804;23.342;2023-07-29T07:05:05;8.87;;;3.70;;
3253;SDS011;1639;42.804;23.342;2023-07-29T07:07:30;7.30;;;3.50;;
3253;SDS011;1639;42.804;23.342;2023-07-29T07:09:56;6.43;;;3.17;;
3253;SDS011;1639;42.804;23.342;2023-07-29T07:12:21;6.70;;;4.00;;
3253;SDS011;1639;42.804;23.342;2023-07-29T07:14:47;7.37;;;3.40;;
3253;SDS011;1639;42.804;23.342;2023-07-29T07:17:12;6.60;;;2.90;;
3253;SDS011;1639;42.804;23.342;2023-07-29T07:19:38;10.03;;;3.80;;
3253;SDS011;1639;42.804;23.342;2023-07-29T07:22:03;7.83;;;3.93;;
3253;SDS011;1639;42.804;23.342;2023-07-29T07:24:29;8.03;;;3.50;;
3253;SDS011;1639;42.804;23.342;2023-07-29T07:26:54;9.13;;;3.60;;
3253;SDS011;1639;42.804;23.342;2023-07-29T07:29:19;7.63;;;3.77;;
3253;SDS011;1639;42.804;23.342;2023-07-29T07:31:49;7.67;;;3.60;;
3253;SDS011;1639;42.804;23.342;2023-07-29T07:34:17;6.83;;;3.43;;
3253;SDS011;1639;42.804;23.342;2023-07-29T07:36:43;8.37;;;4.23;;
3253;SDS011;1639;42.804;23.342;2023-07-29T07:39:09;9.50;;;3.77;;
3253;SDS011;1639;42.804;23.342;2023-07-29T07:41:34;5.90;;;3.20;;
3253;SDS011;1639;42.804;23.342;2023-07-29T07:43:59;8.67;;;4.20;;
3253;SDS011;1639;42.804;23.342;2023-07-29T07:46:25;8.47;;;3.70;;
3253;SDS011;1639;42.804;23.342;2023-07-29T07:48:50;6.90;;;3.43;;
3253;SDS011;1639;42.804;23.342;2023-07-29T07:51:16;8.83;;;3.70;;
3253;SDS011;1639;42.804;23.342;2023-07-29T07:53:41;6.37;;;4.00;;
3253;SDS011;1639;42.804;23.342;2023-07-29T07:56:07;7.00;;;3.40;;
3253;SDS011;1639;42.804;23.342;2023-07-29T07:58:32;7.03;;;3.90;;
3253;SDS011;1639;42.804;23.342;2023-07-29T08:01:04;6.10;;;3.20;;
3253;SDS011;1639;42.804;23.342;2023-07-29T08:03:31;5.63;;;3.30;;
3253;SDS011;1639;42.804;23.342;2023-07-29T08:05:57;7.77;;;3.33;;
3253;SDS011;1639;42.804;23.342;2023-07-29T08:08:23;6.57;;;3.20;;
3253;SDS011;1639;42.804;23.342;2023-07-29T08:10:48;5.47;;;3.10;;
3253;SDS011;1639;42.804;23.342;2023-07-29T08:13:13;5.63;;;2.90;;
3253;SDS011;1639;42.804;23.342;2023-07-29T08:15:39;6.33;;;3.60;;
3253;SDS011;1639;42.804;23.342;2023-07-29T08:18:06;6.50;;;3.03;;
3253;SDS011;1639;42.804;23.342;2023-07-29T08:20:31;5.70;;;3.73;;
3253;SDS011;1639;42.804;23.342;2023-07-29T08:22:57;8.10;;;3.77;;
3253;SDS011;1639;42.804;23.342;2023-07-29T08:25:23;8.13;;;3.70;;
3253;SDS011;1639;42.804;23.342;2023-07-29T08:27:48;6.70;;;4.00;;
3253;SDS011;1639;42.804;23.342;2023-07-29T08:30:14;10.30;;;3.80;;
3253;SDS011;1639;42.804;23.342;2023-07-29T08:32:40;7.17;;;3.43;;
3253;SDS011;1639;42.804;23.342;2023-07-29T08:35:06;5.60;;;2.90;;
3253;SDS011;1639;42.804;23.342;2023-07-29T08:37:32;5.90;;;3.03;;
3253;SDS011;1639;42.804;23.342;2023-07-29T08:39:58;6.10;;;2.93;;
3253;SDS011;1639;42.804;23.342;2023-07-29T08:42:23;5.50;;;2.70;;
3253;SDS011;1639;42.804;23.342;2023-07-29T08:44:56;6.07;;;3.50;;
3253;SDS011;1639;42.804;23.342;2023-07-29T08:47:31;10.27;;;3.63;;
3253;SDS011;1639;42.804;23.342;2023-07-29T08:49:56;5.30;;;2.97;;
3253;SDS011;1639;42.804;23.342;2023-07-29T08:52:24;8.80;;;2.87;;
3253;SDS011;1639;42.804;23.342;2023-07-29T08:54:51;5.40;;;2.90;;
3253;SDS011;1639;42.804;23.342;2023-07-29T08:57:17;6.17;;;3.27;;
3253;SDS011;1639;42.804;23.342;2023-07-29T08:59:45;5.67;;;3.00;;
3253;SDS011;1639;42.804;23.342;2023-07-29T09:02:11;5.67;;;3.20;;
3253;SDS011;1639;42.804;23.342;2023-07-29T09:04:36;5.40;;;2.53;;
3253;SDS011;1639;42.804;23.342;2023-07-29T09:07:02;8.50;;;3.20;;
3253;SDS011;1639;42.804;23.342;2023-07-29T09:09:28;6.93;;;2.90;;
3253;SDS011;1639;42.804;23.342;2023-07-29T09:11:53;5.23;;;2.77;;
3253;SDS011;1639;42.804;23.342;2023-07-29T09:14:19;5.37;;;2.70;;
3253;SDS011;1639;42.804;23.342;2023-07-29T09:16:45;7.63;;;2.80;;
3253;SDS011;1639;42.804;23.342;2023-07-29T09:19:11;7.07;;;3.20;;
3253;SDS011;1639;42.804;23.342;2023-07-29T09:21:38;6.47;;;3.17;;
3253;SDS011;1639;42.804;23.342;2023-07-29T09:24:04;6.50;;;2.47;;
3253;SDS011;1639;42.804;23.342;2023-07-29T09:26:30;5.83;;;3.23;;
3253;SDS011;1639;42.804;23.342;2023-07-29T09:28:57;8.17;;;3.17;;
3253;SDS011;1639;42.804;23.342;2023-07-29T09:31:24;6.20;;;2.73;;
3253;SDS011;1639;42.804;23.342;2023-07-29T09:34:01;5.20;;;2.33;;
3253;SDS011;1639;42.804;23.342;2023-07-29T09:36:30;5.80;;;2.73;;
3253;SDS011;1639;42.804;23.342;2023-07-29T09:38:56;6.20;;;3.03;;
3253;SDS011;1639;42.804;23.342;2023-07-29T09:41:23;6.40;;;2.70;;
3253;SDS011;1639;42.804;23.342;2023-07-29T09:43:54;5.50;;;2.53;;
3253;SDS011;1639;42.804;23.342;2023-07-29T09:46:22;5.30;;;2.73;;
3253;SDS011;1639;42.804;23.342;2023-07-29T09:48:48;6.20;;;2.53;;
3253;SDS011;1639;42.804;23.342;2023-07-29T09:51:15;6.77;;;2.90;;
3253;SDS011;1639;42.804;23.342;2023-07-29T09:53:42;4.90;;;2.70;;
3253;SDS011;1639;42.804;23.342;2023-07-29T09:56:08;6.00;;;3.30;;
3253;SDS011;1639;42.804;23.342;2023-07-29T09:58:34;5.13;;;2.53;;
3253;SDS011;1639;42.804;23.342;2023-07-29T10:01:00;6.30;;;2.30;;
3253;SDS011;1639;42.804;23.342;2023-07-29T10:03:26;5.50;;;2.40;;
3253;SDS011;1639;42.804;23.342;2023-07-29T10:05:53;5.23;;;2.67;;
3253;SDS011;1639;42.804;23.342;2023-07-29T10:08:18;7.73;;;2.73;;
3253;SDS011;1639;42.804;23.342;2023-07-29T10:10:45;5.40;;;2.40;;
3253;SDS011;1639;42.804;23.342;2023-07-29T10:13:10;5.30;;;2.30;;
3253;SDS011;1639;42.804;23.342;2023-07-29T10:15:38;6.70;;;3.30;;
3253;SDS011;1639;42.804;23.342;2023-07-29T10:18:03;5.83;;;2.40;;
3253;SDS011;1639;42.804;23.342;2023-07-29T10:20:32;6.20;;;2.70;;
3253;SDS011;1639;42.804;23.342;2023-07-29T10:22:59;6.17;;;2.80;;
3253;SDS011;1639;42.804;23.342;2023-07-29T10:25:27;5.50;;;2.53;;
3253;SDS011;1639;42.804;23.342;2023-07-29T10:28:07;4.57;;;2.10;;
3253;SDS011;1639;42.804;23.342;2023-07-29T10:30:33;5.90;;;2.13;;
3253;SDS011;1639;42.804;23.342;2023-07-29T10:33:01;5.07;;;2.30;;
3253;SDS011;1639;42.804;23.342;2023-07-29T10:35:28;5.47;;;2.80;;
3253;SDS011;1639;42.804;23.342;2023-07-29T10:37:54;5.97;;;2.90;;
3253;SDS011;1639;42.804;23.342;2023-07-29T10:40:20;6.00;;;2.13;;
3253;SDS011;1639;42.804;23.342;2023-07-29T10:43:01;4.60;;;2.17;;
3253;SDS011;1639;42.804;23.342;2023-07-29T10:45:40;5.07;;;2.20;;
3253;SDS011;1639;42.804;23.342;2023-07-29T10:48:13;4.77;;;1.80;;
3253;SDS011;1639;42.804;23.342;2023-07-29T10:54:11;4.40;;;1.70;;
3253;SDS011;1639;42.804;23.342;2023-07-29T10:56:41;6.73;;;2.20;;
3253;SDS011;1639;42.804;23.342;2023-07-29T11:01:43;4.80;;;1.83;;
3253;SDS011;1639;42.804;23.342;2023-07-29T11:17:35;5.27;;;2.23;;
3253;SDS011;1639;42.804;23.342;2023-07-29T11:20:02;4.50;;;1.90;;
3253;SDS011;1639;42.804;23.342;2023-07-29T11:22:28;6.10;;;2.13;;
3253;SDS011;1639;42.804;23.342;2023-07-29T11:24:54;5.47;;;2.37;;
3253;SDS011;1639;42.804;23.342;2023-07-29T11:27:19;4.57;;;1.87;;
3253;SDS011;1639;42.804;23.342;2023-07-29T11:29:46;6.70;;;2.10;;
3253;SDS011;1639;42.804;23.342;2023-07-29T11:32:11;4.50;;;2.00;;
3253;SDS011;1639;42.804;23.342;2023-07-29T11:34:37;4.60;;;1.90;;
3253;SDS011;1639;42.804;23.342;2023-07-29T11:37:02;4.80;;;1.77;;
3253;SDS011;1639;42.804;23.342;2023-07-29T11:39:28;4.70;;;2.03;;
3253;SDS011;1639;42.804;23.342;2023-07-29T11:41:53;5.30;;;2.20;;
3253;SDS011;1639;42.804;23.342;2023-07-29T11:44:18;4.60;;;1.70;;
3253;SDS011;1639;42.804;23.342;2023-07-29T11:46:44;4.70;;;1.70;;
3253;SDS011;1639;42.804;23.342;2023-07-29T11:49:10;4.57;;;1.60;;
3253;SDS011;1639;42.804;23.342;2023-07-29T11:51:36;4.40;;;1.60;;
3253;SDS011;1639;42.804;23.342;2023-07-29T11:54:02;4.53;;;1.83;;
3253;SDS011;1639;42.804;23.342;2023-07-29T11:56:27;7.30;;;2.23;;
3253;SDS011;1639;42.804;23.342;2023-07-29T11:58:55;5.07;;;2.07;;
3253;SDS011;1639;42.804;23.342;2023-07-29T12:01:21;5.50;;;1.67;;
3253;SDS011;1639;42.804;23.342;2023-07-29T12:03:47;4.43;;;1.90;;
3253;SDS011;1639;42.804;23.342;2023-07-29T12:06:15;4.67;;;1.80;;
3253;SDS011;1639;42.804;23.342;2023-07-29T12:08:41;4.57;;;1.87;;
3253;SDS011;1639;42.804;23.342;2023-07-29T12:11:07;5.83;;;1.83;;
3253;SDS011;1639;42.804;23.342;2023-07-29T12:13:33;6.03;;;2.03;;
3253;SDS011;1639;42.804;23.342;2023-07-29T12:16:02;4.50;;;1.77;;
3253;SDS011;1639;42.804;23.342;2023-07-29T12:18:35;5.53;;;2.30;;
3253;SDS011;1639;42.804;23.342;2023-07-29T12:21:01;4.60;;;1.70;;
3253;SDS011;1639;42.804;23.342;2023-07-29T12:23:28;4.70;;;2.03;;
3253;SDS011;1639;42.804;23.342;2023-07-29T12:25:58;4.60;;;2.10;;
3253;SDS011;1639;42.804;23.342;2023-07-29T12:28:24;4.43;;;1.93;;
3253;SDS011;1639;42.804;23.342;2023-07-29T12:30:56;4.60;;;2.13;;
3253;SDS011;1639;42.804;23.342;2023-07-29T12:33:56;4.40;;;1.80;;
3253;SDS011;1639;42.804;23.342;2023-07-29T12:36:14;4.30;;;1.60;;
3253;SDS011;1639;42.804;23.342;2023-07-29T12:38:42;4.50;;;1.90;;
3253;SDS011;1639;42.804;23.342;2023-07-29T12:41:08;4.40;;;1.70;;
3253;SDS011;1639;42.804;23.342;2023-07-29T12:43:34;4.10;;;1.50;;
3253;SDS011;1639;42.804;23.342;2023-07-29T12:46:00;4.70;;;1.80;;
3253;SDS011;1639;42.804;23.342;2023-07-29T12:48:25;4.67;;;2.30;;
3253;SDS011;1639;42.804;23.342;2023-07-29T12:50:50;4.30;;;1.80;;
3253;SDS011;1639;42.804;23.342;2023-07-29T12:53:16;4.80;;;1.93;;
3253;SDS011;1639;42.804;23.342;2023-07-29T12:55:43;5.23;;;2.20;;
3253;SDS011;1639;42.804;23.342;2023-07-29T12:58:08;6.30;;;2.27;;
3253;SDS011;1639;42.804;23.342;2023-07-29T13:00:33;4.50;;;1.87;;
3253;SDS011;1639;42.804;23.342;2023-07-29T13:02:59;4.93;;;1.80;;
3253;SDS011;1639;42.804;23.342;2023-07-29T13:05:24;4.67;;;1.90;;
3253;SDS011;1639;42.804;23.342;2023-07-29T13:07:49;4.40;;;1.90;;
3253;SDS011;1639;42.804;23.342;2023-07-29T13:10:15;4.80;;;2.00;;
3253;SDS011;1639;42.804;23.342;2023-07-29T13:12:48;5.80;;;2.37;;
3253;SDS011;1639;42.804;23.342;2023-07-29T13:15:14;4.73;;;2.17;;
3253;SDS011;1639;42.804;23.342;2023-07-29T13:17:39;4.50;;;2.10;;
3253;SDS011;1639;42.804;23.342;2023-07-29T13:20:05;4.67;;;2.10;;
3253;SDS011;1639;42.804;23.342;2023-07-29T13:22:31;5.20;;;2.13;;
3253;SDS011;1639;42.804;23.342;2023-07-29T13:24:56;5.10;;;2.33;;
3253;SDS011;1639;42.804;23.342;2023-07-29T13:27:22;5.70;;;2.67;;
3253;SDS011;1639;42.804;23.342;2023-07-29T13:29:49;5.30;;;2.30;;
3253;SDS011;1639;42.804;23.342;2023-07-29T13:32:14;6.10;;;2.60;;
3253;SDS011;1639;42.804;23.342;2023-07-29T13:34:39;4.83;;;2.43;;
3253;SDS011;1639;42.804;23.342;2023-07-29T13:37:05;4.87;;;2.23;;
3253;SDS011;1639;42.804;23.342;2023-07-29T13:39:31;5.27;;;2.40;;
3253;SDS011;1639;42.804;23.342;2023-07-29T13:41:56;5.67;;;2.10;;
3253;SDS011;1639;42.804;23.342;2023-07-29T13:44:21;6.27;;;2.40;;
3253;SDS011;1639;42.804;23.342;2023-07-29T13:46:47;5.00;;;2.50;;
3253;SDS011;1639;42.804;23.342;2023-07-29T13:49:12;5.50;;;2.33;;
3253;SDS011;1639;42.804;23.342;2023-07-29T13:51:37;4.90;;;2.30;;
3253;SDS011;1639;42.804;23.342;2023-07-29T13:54:03;4.90;;;2.43;;
3253;SDS011;1639;42.804;23.342;2023-07-29T13:56:28;4.90;;;2.13;;
3253;SDS011;1639;42.804;23.342;2023-07-29T13:58:54;7.00;;;2.80;;
3253;SDS011;1639;42.804;23.342;2023-07-29T14:01:19;5.20;;;2.43;;
3253;SDS011;1639;42.804;23.342;2023-07-29T14:03:44;4.77;;;2.10;;
3253;SDS011;1639;42.804;23.342;2023-07-29T14:06:10;6.90;;;2.07;;
3253;SDS011;1639;42.804;23.342;2023-07-29T14:08:35;4.60;;;2.00;;
3253;SDS011;1639;42.804;23.342;2023-07-29T14:11:00;5.10;;;2.60;;
3253;SDS011;1639;42.804;23.342;2023-07-29T14:13:26;5.27;;;2.70;;
3253;SDS011;1639;42.804;23.342;2023-07-29T14:15:51;5.20;;;2.13;;
3253;SDS011;1639;42.804;23.342;2023-07-29T14:18:17;4.53;;;2.10;;
3253;SDS011;1639;42.804;23.342;2023-07-29T14:20:42;5.37;;;2.63;;
3253;SDS011;1639;42.804;23.342;2023-07-29T14:23:07;7.83;;;2.20;;
3253;SDS011;1639;42.804;23.342;2023-07-29T14:25:33;4.70;;;2.77;;
3253;SDS011;1639;42.804;23.342;2023-07-29T14:27:58;4.80;;;2.30;;
3253;SDS011;1639;42.804;23.342;2023-07-29T14:30:23;4.90;;;2.00;;
3253;SDS011;1639;42.804;23.342;2023-07-29T14:32:49;5.23;;;2.53;;
3253;SDS011;1639;42.804;23.342;2023-07-29T14:35:14;5.80;;;2.43;;
3253;SDS011;1639;42.804;23.342;2023-07-29T14:37:39;8.07;;;2.73;;
3253;SDS011;1639;42.804;23.342;2023-07-29T14:40:05;7.37;;;2.10;;
3253;SDS011;1639;42.804;23.342;2023-07-29T14:42:31;8.80;;;2.80;;
3253;SDS011;1639;42.804;23.342;2023-07-29T14:44:56;5.53;;;2.47;;
3253;SDS011;1639;42.804;23.342;2023-07-29T14:47:22;5.90;;;2.43;;
3253;SDS011;1639;42.804;23.342;2023-07-29T14:49:47;5.43;;;2.73;;
3253;SDS011;1639;42.804;23.342;2023-07-29T14:52:12;4.60;;;2.03;;
3253;SDS011;1639;42.804;23.342;2023-07-29T14:54:38;5.73;;;2.73;;
3253;SDS011;1639;42.804;23.342;2023-07-29T14:57:05;6.97;;;2.20;;
3253;SDS011;1639;42.804;23.342;2023-07-29T14:59:31;9.40;;;2.57;;
3253;SDS011;1639;42.804;23.342;2023-07-29T15:01:57;7.37;;;2.20;;
3253;SDS011;1639;42.804;23.342;2023-07-29T15:04:22;5.47;;;2.07;;
3253;SDS011;1639;42.804;23.342;2023-07-29T15:06:47;4.67;;;2.00;;
3253;SDS011;1639;42.804;23.342;2023-07-29T15:09:13;4.70;;;2.00;;
3253;SDS011;1639;42.804;23.342;2023-07-29T15:11:38;4.57;;;1.90;;
3253;SDS011;1639;42.804;23.342;2023-07-29T15:14:04;5.10;;;2.20;;
3253;SDS011;1639;42.804;23.342;2023-07-29T15:16:29;6.43;;;2.73;;
3253;SDS011;1639;42.804;23.342;2023-07-29T15:18:55;4.77;;;2.10;;